Zana — S5P3759 — position and weather

sailwx.info

Track history (hours):
 
Tides and Currents Weather Stations Pressure Air Temp Water Temp Dewpoint Dewpoint Depression Visibility Wind Speed Wind Dir Waves Ship Positions

Zana

Last reported at 2017-Dec-03 21:34 UTC. Time now 2018-Feb-21 07:43 UTC.
Position N 14°26' W 060°53'.
Warning: this ship's position is months out of date.

Length 15 m.

Type: Sailing vessel. MMSI: 278750000.

Date/timePositionNaut miles runAvg speedWind from/ knotsBaromVisibWave heightAir tempDewpointWater temp
2017-Dec-03 21:34N 14°26' W 060°53'0 0.0
2017-Dec-03 21:30N 14°26' W 060°53'2 4.1
2017-Dec-03 21:00N 14°25' W 060°55'4 7.0
2017-Dec-03 20:30N 14°22' W 060°57'2 4.0
2017-Dec-03 20:00N 14°22' W 060°59'  
2017-Nov-29 16:31N 14°28' W 060°52'0 0.1
2017-Nov-29 16:28N 14°28' W 060°52'0 0.4
2017-Nov-29 16:00N 14°28' W 060°52'1 2.5
2017-Nov-29 15:30N 14°27' W 060°53'1 2.2
2017-Nov-29 14:59N 14°26' W 060°53'0 0.0
2017-Nov-28 13:39N 14°26' W 060°53'0 0.0
2017-Nov-28 13:30N 14°26' W 060°53'0 0.0
2017-Nov-28 13:00N 14°26' W 060°53'0 0.0
2017-Nov-28 08:08N 14°26' W 060°53'0 1.1
2017-Nov-28 08:00N 14°26' W 060°54'2 3.8
2017-Nov-28 07:30N 14°24' W 060°54'3 5.9
2017-Nov-28 07:01N 14°22' W 060°52'  
Track history (hours):
 
Tides and Currents Weather Stations Pressure Air Temp Water Temp Dewpoint Dewpoint Depression Visibility Wind Speed Wind Dir Waves Ship Positions

Zana

Last reported at 2017-Dec-03 21:34 UTC. Time now 2018-Feb-21 07:43 UTC.
Position N 14°26' W 060°53'.
Warning: this ship's position is months out of date.

Length 15 m.

Type: Sailing vessel. MMSI: 278750000.

Date/timePositionNaut miles runAvg speedWind from/ knotsBaromVisibWave heightAir tempDewpointWater temp
2017-Dec-03 21:34N 14°26' W 060°53'0 0.0
2017-Dec-03 21:30N 14°26' W 060°53'2 4.1
2017-Dec-03 21:00N 14°25' W 060°55'4 7.0
2017-Dec-03 20:30N 14°22' W 060°57'2 4.0
2017-Dec-03 20:00N 14°22' W 060°59'  
2017-Nov-29 16:31N 14°28' W 060°52'0 0.1
2017-Nov-29 16:28N 14°28' W 060°52'0 0.4
2017-Nov-29 16:00N 14°28' W 060°52'1 2.5
2017-Nov-29 15:30N 14°27' W 060°53'1 2.2
2017-Nov-29 14:59N 14°26' W 060°53'0 0.0
2017-Nov-28 13:39N 14°26' W 060°53'0 0.0
2017-Nov-28 13:30N 14°26' W 060°53'0 0.0
2017-Nov-28 13:00N 14°26' W 060°53'0 0.0
2017-Nov-28 08:08N 14°26' W 060°53'0 1.1
2017-Nov-28 08:00N 14°26' W 060°54'2 3.8
2017-Nov-28 07:30N 14°24' W 060°54'3 5.9
2017-Nov-28 07:01N 14°22' W 060°52'  

Dump ship's entire track history